Arikun — 3EKY2 — position and weather

sailwx.info

Track history (hours):
 
Tides and Currents Weather Stations Pressure Air Temp Water Temp Dewpoint Dewpoint Depression Visibility Wind Speed Wind Dir Waves Ship Positions

Arikun

Last reported at 2017-May-25 00:58 UTC. Time now 2017-May-25 01:08 UTC.
Position N 01°14' E 103°57'.

Length 112 m; draft 7.4 m.

Type: Cargo ship. MMSI: 372870000.

Date/timePositionNaut miles runAvg speedWind from/ knotsBaromVisibWave heightAir tempDewpointWater temp
2017-May-25 00:58N 01°14' E 103°57'4 7.8
2017-May-25 00:30N 01°14' E 103°54'1 0.7
2017-May-24 22:54N 01°15' E 103°53'0 0.0
2017-May-24 22:23N 01°15' E 103°53'0 0.0
2017-May-24 22:00N 01°15' E 103°53'0 0.0
2017-May-24 21:28N 01°15' E 103°53'0 0.1
2017-May-24 21:00N 01°15' E 103°53'0 0.0
2017-May-24 20:30N 01°15' E 103°53'0 0.0
2017-May-24 20:00N 01°15' E 103°53'0 0.0
2017-May-24 19:29N 01°15' E 103°53'0 0.2
2017-May-24 18:59N 01°15' E 103°53'2 3.5
2017-May-24 18:30N 01°14' E 103°54'4 7.9
2017-May-24 18:00N 01°11' E 103°51'4 7.5
2017-May-24 17:30N 01°09' E 103°47'3 5.7
2017-May-24 16:59N 01°07' E 103°45'510.1
2017-May-24 16:30N 01°04' E 103°41'4 8.4
2017-May-24 16:00N 01°04' E 103°37'710.1
2017-May-24 15:18N 01°07' E 103°31'310.1
2017-May-24 14:59N 01°09' E 103°28'7410.3
2017-May-24 07:49N 01°48' E 102°26'  
Track history (hours):
 
Tides and Currents Weather Stations Pressure Air Temp Water Temp Dewpoint Dewpoint Depression Visibility Wind Speed Wind Dir Waves Ship Positions

Arikun

Last reported at 2017-May-25 00:58 UTC. Time now 2017-May-25 01:08 UTC.
Position N 01°14' E 103°57'.

Length 112 m; draft 7.4 m.

Type: Cargo ship. MMSI: 372870000.

Date/timePositionNaut miles runAvg speedWind from/ knotsBaromVisibWave heightAir tempDewpointWater temp
2017-May-25 00:58N 01°14' E 103°57'4 7.8
2017-May-25 00:30N 01°14' E 103°54'1 0.7
2017-May-24 22:54N 01°15' E 103°53'0 0.0
2017-May-24 22:23N 01°15' E 103°53'0 0.0
2017-May-24 22:00N 01°15' E 103°53'0 0.0
2017-May-24 21:28N 01°15' E 103°53'0 0.1
2017-May-24 21:00N 01°15' E 103°53'0 0.0
2017-May-24 20:30N 01°15' E 103°53'0 0.0
2017-May-24 20:00N 01°15' E 103°53'0 0.0
2017-May-24 19:29N 01°15' E 103°53'0 0.2
2017-May-24 18:59N 01°15' E 103°53'2 3.5
2017-May-24 18:30N 01°14' E 103°54'4 7.9
2017-May-24 18:00N 01°11' E 103°51'4 7.5
2017-May-24 17:30N 01°09' E 103°47'3 5.7
2017-May-24 16:59N 01°07' E 103°45'510.1
2017-May-24 16:30N 01°04' E 103°41'4 8.4
2017-May-24 16:00N 01°04' E 103°37'710.1
2017-May-24 15:18N 01°07' E 103°31'310.1
2017-May-24 14:59N 01°09' E 103°28'7410.3
2017-May-24 07:49N 01°48' E 102°26'  

Dump ship's entire track history